sensor_id;sensor_type;location;lat;lon;timestamp;pressure;altitude;pressure_sealevel;temperature;humidity
7052;BME280;3567;52.444;13.556;2022-12-19T00:01:46;102549.41;;;-5.30;100.00
7052;BME280;3567;52.444;13.556;2022-12-19T00:04:12;102535.41;;;-5.29;100.00
7052;BME280;3567;52.444;13.556;2022-12-19T00:06:40;102530.97;;;-5.27;100.00
7052;BME280;3567;52.444;13.556;2022-12-19T00:09:06;102528.28;;;-5.25;100.00
7052;BME280;3567;52.444;13.556;2022-12-19T00:11:32;102524.81;;;-5.25;100.00
7052;BME280;3567;52.444;13.556;2022-12-19T00:13:58;102523.88;;;-5.24;100.00
7052;BME280;3567;52.444;13.556;2022-12-19T00:16:26;102513.34;;;-5.23;100.00
7052;BME280;3567;52.444;13.556;2022-12-19T00:18:53;102510.69;;;-5.21;100.00
7052;BME280;3567;52.444;13.556;2022-12-19T00:21:21;102506.19;;;-5.19;100.00
7052;BME280;3567;52.444;13.556;2022-12-19T00:23:47;102507.78;;;-5.17;100.00
7052;BME280;3567;52.444;13.556;2022-12-19T00:26:20;102507.63;;;-5.14;100.00
7052;BME280;3567;52.444;13.556;2022-12-19T00:28:48;102500.53;;;-5.12;100.00
7052;BME280;3567;52.444;13.556;2022-12-19T00:31:15;102507.38;;;-5.09;100.00
7052;BME280;3567;52.444;13.556;2022-12-19T00:33:41;102502.06;;;-5.08;100.00
7052;BME280;3567;52.444;13.556;2022-12-19T00:36:10;102501.13;;;-5.07;100.00
7052;BME280;3567;52.444;13.556;2022-12-19T00:38:36;102498.47;;;-5.05;100.00
7052;BME280;3567;52.444;13.556;2022-12-19T00:41:10;102508.81;;;-5.04;100.00
7052;BME280;3567;52.444;13.556;2022-12-19T00:43:36;102500.81;;;-5.01;100.00
7052;BME280;3567;52.444;13.556;2022-12-19T00:46:03;102500.72;;;-4.99;100.00
7052;BME280;3567;52.444;13.556;2022-12-19T00:48:29;102498.88;;;-4.97;100.00
7052;BME280;3567;52.444;13.556;2022-12-19T00:51:05;102507.50;;;-4.95;100.00
7052;BME280;3567;52.444;13.556;2022-12-19T00:53:31;102498.72;;;-4.94;100.00
7052;BME280;3567;52.444;13.556;2022-12-19T00:56:03;102503.94;;;-4.94;100.00
7052;BME280;3567;52.444;13.556;2022-12-19T00:58:29;102515.13;;;-4.92;100.00
7052;BME280;3567;52.444;13.556;2022-12-19T01:00:55;102522.88;;;-4.90;100.00
7052;BME280;3567;52.444;13.556;2022-12-19T01:03:21;102515.03;;;-4.90;100.00
7052;BME280;3567;52.444;13.556;2022-12-19T01:05:49;102502.91;;;-4.91;100.00
7052;BME280;3567;52.444;13.556;2022-12-19T01:08:14;102492.47;;;-4.91;100.00
7052;BME280;3567;52.444;13.556;2022-12-19T01:10:47;102481.94;;;-4.90;100.00
7052;BME280;3567;52.444;13.556;2022-12-19T01:13:13;102474.09;;;-4.90;100.00
7052;BME280;3567;52.444;13.556;2022-12-19T01:15:39;102467.94;;;-4.89;100.00
7052;BME280;3567;52.444;13.556;2022-12-19T01:18:08;102463.47;;;-4.87;100.00
7052;BME280;3567;52.444;13.556;2022-12-19T01:20:40;102452.06;;;-4.86;100.00
7052;BME280;3567;52.444;13.556;2022-12-19T01:23:07;102455.53;;;-4.85;100.00
7052;BME280;3567;52.444;13.556;2022-12-19T01:25:34;102457.22;;;-4.84;100.00
7052;BME280;3567;52.444;13.556;2022-12-19T01:28:00;102460.59;;;-4.82;100.00
7052;BME280;3567;52.444;13.556;2022-12-19T01:30:26;102448.34;;;-4.82;100.00
7052;BME280;3567;52.444;13.556;2022-12-19T01:32:52;102436.13;;;-4.81;100.00
7052;BME280;3567;52.444;13.556;2022-12-19T01:35:17;102439.56;;;-4.81;100.00
7052;BME280;3567;52.444;13.556;2022-12-19T01:37:43;102431.66;;;-4.79;100.00
7052;BME280;3567;52.444;13.556;2022-12-19T01:40:10;102424.66;;;-4.79;100.00
7052;BME280;3567;52.444;13.556;2022-12-19T01:42:36;102415.88;;;-4.78;100.00
7052;BME280;3567;52.444;13.556;2022-12-19T01:51:06;102381.72;;;-4.75;100.00
7052;BME280;3567;52.444;13.556;2022-12-19T01:53:08;102379.03;;;-4.73;100.00
7052;BME280;3567;52.444;13.556;2022-12-19T01:55:37;102371.09;;;-4.71;100.00
7052;BME280;3567;52.444;13.556;2022-12-19T01:58:03;102361.56;;;-4.72;100.00
7052;BME280;3567;52.444;13.556;2022-12-19T02:00:29;102371.94;;;-4.71;100.00
7052;BME280;3567;52.444;13.556;2022-12-19T02:02:59;102359.59;;;-4.69;100.00
7052;BME280;3567;52.444;13.556;2022-12-19T02:05:28;102351.47;;;-4.64;100.00
7052;BME280;3567;52.444;13.556;2022-12-19T02:07:54;102351.47;;;-4.64;100.00
7052;BME280;3567;52.444;13.556;2022-12-19T02:10:19;102341.78;;;-4.62;100.00
7052;BME280;3567;52.444;13.556;2022-12-19T02:12:45;102342.44;;;-4.59;100.00
7052;BME280;3567;52.444;13.556;2022-12-19T02:15:12;102351.06;;;-4.57;100.00
7052;BME280;3567;52.444;13.556;2022-12-19T02:18:03;102338.63;;;-4.53;100.00
7052;BME280;3567;52.444;13.556;2022-12-19T02:29:13;102326.22;;;-4.50;100.00
7052;BME280;3567;52.444;13.556;2022-12-19T02:31:46;102323.50;;;-4.48;100.00
7052;BME280;3567;52.444;13.556;2022-12-19T02:34:23;102327.88;;;-4.49;100.00
7052;BME280;3567;52.444;13.556;2022-12-19T02:37:09;102320.97;;;-4.50;100.00
7052;BME280;3567;52.444;13.556;2022-12-19T02:39:41;102320.97;;;-4.50;100.00
7052;BME280;3567;52.444;13.556;2022-12-19T02:42:10;102329.56;;;-4.48;100.00
7052;BME280;3567;52.444;13.556;2022-12-19T02:44:48;102321.72;;;-4.48;100.00
7052;BME280;3567;52.444;13.556;2022-12-19T02:47:15;102317.41;;;-4.49;100.00
7052;BME280;3567;52.444;13.556;2022-12-19T02:49:41;102320.13;;;-4.50;100.00
7052;BME280;3567;52.444;13.556;2022-12-19T02:55:02;102322.91;;;-4.53;100.00
7052;BME280;3567;52.444;13.556;2022-12-19T02:57:32;102318.63;;;-4.54;100.00
7052;BME280;3567;52.444;13.556;2022-12-19T03:02:42;102316.13;;;-4.56;100.00
7052;BME280;3567;52.444;13.556;2022-12-19T03:05:44;102310.06;;;-4.56;100.00
7052;BME280;3567;52.444;13.556;2022-12-19T03:08:27;102314.44;;;-4.57;100.00
7052;BME280;3567;52.444;13.556;2022-12-19T03:10:58;102314.44;;;-4.57;100.00
7052;BME280;3567;52.444;13.556;2022-12-19T03:13:55;102317.13;;;-4.58;100.00
7052;BME280;3567;52.444;13.556;2022-12-19T03:16:23;102316.22;;;-4.57;100.00
7052;BME280;3567;52.444;13.556;2022-12-19T03:18:50;102313.59;;;-4.57;100.00
7052;BME280;3567;52.444;13.556;2022-12-19T03:21:26;102307.44;;;-4.56;100.00
7052;BME280;3567;52.444;13.556;2022-12-19T03:23:54;102298.75;;;-4.57;100.00
7052;BME280;3567;52.444;13.556;2022-12-19T03:26:22;102306.50;;;-4.55;100.00
7052;BME280;3567;52.444;13.556;2022-12-19T03:29:06;102303.78;;;-4.54;100.00
7052;BME280;3567;52.444;13.556;2022-12-19T03:31:34;102301.09;;;-4.52;100.00
7052;BME280;3567;52.444;13.556;2022-12-19T03:34:07;102297.53;;;-4.51;100.00
7052;BME280;3567;52.444;13.556;2022-12-19T03:36:44;102304.44;;;-4.50;100.00
7052;BME280;3567;52.444;13.556;2022-12-19T03:39:11;102294.81;;;-4.50;100.00
7052;BME280;3567;52.444;13.556;2022-12-19T03:41:39;102286.97;;;-4.50;100.00
7052;BME280;3567;52.444;13.556;2022-12-19T03:44:30;102285.97;;;-4.47;100.00
7052;BME280;3567;52.444;13.556;2022-12-19T03:47:35;102294.66;;;-4.46;100.00
7052;BME280;3567;52.444;13.556;2022-12-19T03:49:53;102305.00;;;-4.45;100.00
7052;BME280;3567;52.444;13.556;2022-12-19T03:52:51;102298.00;;;-4.44;100.00
7052;BME280;3567;52.444;13.556;2022-12-19T03:55:23;102297.16;;;-4.45;100.00
7052;BME280;3567;52.444;13.556;2022-12-19T03:57:57;102291.94;;;-4.45;100.00
7052;BME280;3567;52.444;13.556;2022-12-19T04:00:24;102298.84;;;-4.44;100.00
7052;BME280;3567;52.444;13.556;2022-12-19T04:02:53;102286.69;;;-4.45;100.00
7052;BME280;3567;52.444;13.556;2022-12-19T04:05:22;102298.84;;;-4.44;100.00
7052;BME280;3567;52.444;13.556;2022-12-19T04:07:50;102300.50;;;-4.43;100.00
7052;BME280;3567;52.444;13.556;2022-12-19T04:10:19;102299.59;;;-4.42;100.00
7052;BME280;3567;52.444;13.556;2022-12-19T04:12:57;102301.34;;;-4.42;100.00
7052;BME280;3567;52.444;13.556;2022-12-19T04:15:32;102289.16;;;-4.42;100.00
7052;BME280;3567;52.444;13.556;2022-12-19T04:18:00;102284.66;;;-4.40;100.00
7052;BME280;3567;52.444;13.556;2022-12-19T04:20:28;102282.88;;;-4.39;100.00
7052;BME280;3567;52.444;13.556;2022-12-19T04:23:07;102281.09;;;-4.39;100.00
7052;BME280;3567;52.444;13.556;2022-12-19T04:25:38;102281.09;;;-4.39;100.00
7052;BME280;3567;52.444;13.556;2022-12-19T04:28:11;102267.91;;;-4.37;100.00
7052;BME280;3567;52.444;13.556;2022-12-19T04:30:38;102275.69;;;-4.36;100.00
7052;BME280;3567;52.444;13.556;2022-12-19T04:33:05;102276.53;;;-4.35;100.00
7052;BME280;3567;52.444;13.556;2022-12-19T04:35:31;102280.09;;;-4.36;100.00
7052;BME280;3567;52.444;13.556;2022-12-19T04:37:56;102286.16;;;-4.36;100.00
7052;BME280;3567;52.444;13.556;2022-12-19T04:40:21;102284.44;;;-4.37;100.00
7052;BME280;3567;52.444;13.556;2022-12-19T04:42:47;102294.72;;;-4.34;100.00
7052;BME280;3567;52.444;13.556;2022-12-19T04:45:12;102284.28;;;-4.34;100.00
7052;BME280;3567;52.444;13.556;2022-12-19T04:47:37;102286.72;;;-4.31;100.00
7052;BME280;3567;52.444;13.556;2022-12-19T04:50:03;102277.81;;;-4.28;100.00
7052;BME280;3567;52.444;13.556;2022-12-19T04:52:29;102273.31;;;-4.26;100.00
7052;BME280;3567;52.444;13.556;2022-12-19T04:54:55;102271.47;;;-4.24;100.00
7052;BME280;3567;52.444;13.556;2022-12-19T04:57:20;102267.06;;;-4.24;100.00
7052;BME280;3567;52.444;13.556;2022-12-19T04:59:46;102269.69;;;-4.24;100.00
7052;BME280;3567;52.444;13.556;2022-12-19T05:02:11;102260.91;;;-4.23;100.00
7052;BME280;3567;52.444;13.556;2022-12-19T05:04:36;102254.72;;;-4.22;99.85
7052;BME280;3567;52.444;13.556;2022-12-19T05:07:02;102232.97;;;-4.22;100.00
7052;BME280;3567;52.444;13.556;2022-12-19T05:09:27;102248.66;;;-4.22;99.95
7052;BME280;3567;52.444;13.556;2022-12-19T05:11:52;102241.66;;;-4.22;100.00
7052;BME280;3567;52.444;13.556;2022-12-19T05:14:18;102250.44;;;-4.23;100.00
7052;BME280;3567;52.444;13.556;2022-12-19T05:16:43;102252.31;;;-4.25;99.82
7052;BME280;3567;52.444;13.556;2022-12-19T05:19:08;102250.66;;;-4.26;99.75
7052;BME280;3567;52.444;13.556;2022-12-19T05:21:34;102248.22;;;-4.29;100.00
7052;BME280;3567;52.444;13.556;2022-12-19T05:23:59;102243.91;;;-4.30;100.00
7052;BME280;3567;52.444;13.556;2022-12-19T05:26:25;102244.03;;;-4.31;99.87
7052;BME280;3567;52.444;13.556;2022-12-19T05:28:50;102246.72;;;-4.33;100.00
7052;BME280;3567;52.444;13.556;2022-12-19T05:31:18;102247.66;;;-4.34;100.00
7052;BME280;3567;52.444;13.556;2022-12-19T05:33:47;102252.72;;;-4.31;100.00
7052;BME280;3567;52.444;13.556;2022-12-19T05:36:13;102236.91;;;-4.29;100.00
7052;BME280;3567;52.444;13.556;2022-12-19T05:38:39;102231.56;;;-4.28;100.00
7052;BME280;3567;52.444;13.556;2022-12-19T05:41:09;102228.78;;;-4.25;99.55
7052;BME280;3567;52.444;13.556;2022-12-19T05:43:35;102233.78;;;-4.22;99.66
7052;BME280;3567;52.444;13.556;2022-12-19T05:46:01;102233.63;;;-4.18;99.59
7052;BME280;3567;52.444;13.556;2022-12-19T05:48:27;102239.59;;;-4.16;100.00
7052;BME280;3567;52.444;13.556;2022-12-19T05:50:53;102237.72;;;-4.14;100.00
7052;BME280;3567;52.444;13.556;2022-12-19T05:53:18;102230.50;;;-4.11;99.85
7052;BME280;3567;52.444;13.556;2022-12-19T05:55:43;102221.63;;;-4.08;99.60
7052;BME280;3567;52.444;13.556;2022-12-19T05:58:09;102213.56;;;-4.05;100.00
7052;BME280;3567;52.444;13.556;2022-12-19T06:00:34;102210.13;;;-4.06;99.47
7052;BME280;3567;52.444;13.556;2022-12-19T06:03:00;102205.53;;;-4.02;100.00
7052;BME280;3567;52.444;13.556;2022-12-19T06:05:25;102213.28;;;-4.01;100.00
7052;BME280;3567;52.444;13.556;2022-12-19T06:07:50;102215.06;;;-4.01;98.95
7052;BME280;3567;52.444;13.556;2022-12-19T06:10:16;102212.25;;;-3.98;99.29
7052;BME280;3567;52.444;13.556;2022-12-19T06:12:41;102207.88;;;-3.98;99.44
7052;BME280;3567;52.444;13.556;2022-12-19T06:15:07;102213.00;;;-3.96;100.00
7052;BME280;3567;52.444;13.556;2022-12-19T06:17:32;102208.53;;;-3.94;99.17
7052;BME280;3567;52.444;13.556;2022-12-19T06:19:58;102190.09;;;-3.92;100.00
7052;BME280;3567;52.444;13.556;2022-12-19T06:22:23;102184.75;;;-3.91;100.00
7052;BME280;3567;52.444;13.556;2022-12-19T06:24:49;102184.66;;;-3.89;100.00
7052;BME280;3567;52.444;13.556;2022-12-19T06:27:14;102177.53;;;-3.87;100.00
7052;BME280;3567;52.444;13.556;2022-12-19T06:29:40;102173.16;;;-3.87;98.88
7052;BME280;3567;52.444;13.556;2022-12-19T06:32:05;102176.59;;;-3.86;98.77
7052;BME280;3567;52.444;13.556;2022-12-19T06:34:30;102185.19;;;-3.84;98.84
7052;BME280;3567;52.444;13.556;2022-12-19T06:36:56;102173.78;;;-3.83;99.97
7052;BME280;3567;52.444;13.556;2022-12-19T06:39:21;102178.81;;;-3.80;98.64
7052;BME280;3567;52.444;13.556;2022-12-19T06:41:47;102175.91;;;-3.76;99.25
7052;BME280;3567;52.444;13.556;2022-12-19T06:44:31;102173.28;;;-3.76;99.63
7052;BME280;3567;52.444;13.556;2022-12-19T06:46:57;102169.84;;;-3.76;98.98
7052;BME280;3567;52.444;13.556;2022-12-19T06:49:22;102168.78;;;-3.74;98.63
7052;BME280;3567;52.444;13.556;2022-12-19T06:51:47;102173.81;;;-3.71;99.21
7052;BME280;3567;52.444;13.556;2022-12-19T06:54:13;102176.34;;;-3.69;99.58
7052;BME280;3567;52.444;13.556;2022-12-19T06:56:40;102174.56;;;-3.69;99.42
7052;BME280;3567;52.444;13.556;2022-12-19T06:59:07;102170.06;;;-3.66;98.14
7052;BME280;3567;52.444;13.556;2022-12-19T07:04:09;102173.31;;;-3.63;98.17
7052;BME280;3567;52.444;13.556;2022-12-19T07:06:37;102185.38;;;-3.60;98.19
7052;BME280;3567;52.444;13.556;2022-12-19T07:09:03;102193.97;;;-3.58;99.34
7052;BME280;3567;52.444;13.556;2022-12-19T07:11:29;102189.38;;;-3.55;99.00
7052;BME280;3567;52.444;13.556;2022-12-19T07:13:54;102193.47;;;-3.51;98.78
7052;BME280;3567;52.444;13.556;2022-12-19T07:16:19;102191.47;;;-3.47;99.68
7052;BME280;3567;52.444;13.556;2022-12-19T07:18:45;102183.53;;;-3.46;98.54
7052;BME280;3567;52.444;13.556;2022-12-19T07:21:10;102177.22;;;-3.43;97.80
7052;BME280;3567;52.444;13.556;2022-12-19T07:23:36;102176.22;;;-3.40;99.46
7052;BME280;3567;52.444;13.556;2022-12-19T07:26:02;102183.84;;;-3.37;98.20
7052;BME280;3567;52.444;13.556;2022-12-19T07:28:28;102177.56;;;-3.35;98.54
7052;BME280;3567;52.444;13.556;2022-12-19T07:30:53;102171.38;;;-3.34;98.61
7052;BME280;3567;52.444;13.556;2022-12-19T07:33:19;102167.63;;;-3.30;97.92
7052;BME280;3567;52.444;13.556;2022-12-19T07:35:44;102167.28;;;-3.25;97.95
7052;BME280;3567;52.444;13.556;2022-12-19T07:38:10;102167.09;;;-3.22;99.35
7052;BME280;3567;52.444;13.556;2022-12-19T07:40:35;102172.88;;;-3.17;98.00
7052;BME280;3567;52.444;13.556;2022-12-19T07:43:04;102177.03;;;-3.14;98.96
7052;BME280;3567;52.444;13.556;2022-12-19T07:45:30;102171.59;;;-3.11;97.57
7052;BME280;3567;52.444;13.556;2022-12-19T07:47:59;102167.84;;;-3.07;97.91
7052;BME280;3567;52.444;13.556;2022-12-19T07:50:25;102167.63;;;-3.04;97.67
7052;BME280;3567;52.444;13.556;2022-12-19T07:52:50;102167.31;;;-3.00;98.60
7052;BME280;3567;52.444;13.556;2022-12-19T07:55:15;102169.63;;;-2.95;96.85
7052;BME280;3567;52.444;13.556;2022-12-19T07:57:41;102180.75;;;-2.92;97.73
7052;BME280;3567;52.444;13.556;2022-12-19T08:00:06;102161.13;;;-2.86;98.14
7052;BME280;3567;52.444;13.556;2022-12-19T08:02:32;102163.44;;;-2.81;97.50
7052;BME280;3567;52.444;13.556;2022-12-19T08:05:00;102162.25;;;-2.77;96.78
7052;BME280;3567;52.444;13.556;2022-12-19T08:07:25;102166.34;;;-2.73;97.62
7052;BME280;3567;52.444;13.556;2022-12-19T08:09:51;102158.16;;;-2.69;95.96
7052;BME280;3567;52.444;13.556;2022-12-19T08:12:16;102161.28;;;-2.64;97.25
7052;BME280;3567;52.444;13.556;2022-12-19T08:14:41;102152.28;;;-2.59;96.64
7052;BME280;3567;52.444;13.556;2022-12-19T08:17:07;102153.63;;;-2.54;96.89
7052;BME280;3567;52.444;13.556;2022-12-19T08:19:33;102148.13;;;-2.51;96.29
7052;BME280;3567;52.444;13.556;2022-12-19T08:21:59;102147.81;;;-2.46;95.48
7052;BME280;3567;52.444;13.556;2022-12-19T08:24:24;102147.38;;;-2.40;96.57
7052;BME280;3567;52.444;13.556;2022-12-19T08:26:49;102140.97;;;-2.36;95.63
7052;BME280;3567;52.444;13.556;2022-12-19T08:29:15;102132.06;;;-2.33;95.60
7052;BME280;3567;52.444;13.556;2022-12-19T08:31:40;102129.94;;;-2.28;95.39
7052;BME280;3567;52.444;13.556;2022-12-19T08:34:05;102127.81;;;-2.23;94.96
7052;BME280;3567;52.444;13.556;2022-12-19T08:36:31;102123.16;;;-2.20;96.43
7052;BME280;3567;52.444;13.556;2022-12-19T08:38:57;102128.09;;;-2.15;94.62
7052;BME280;3567;52.444;13.556;2022-12-19T08:41:22;102129.41;;;-2.09;96.13
7052;BME280;3567;52.444;13.556;2022-12-19T08:43:49;102122.88;;;-2.04;96.00
7052;BME280;3567;52.444;13.556;2022-12-19T08:46:15;102130.44;;;-1.99;95.48
7052;BME280;3567;52.444;13.556;2022-12-19T08:48:42;102124.50;;;-1.90;95.97
7052;BME280;3567;52.444;13.556;2022-12-19T08:51:07;102122.38;;;-1.85;94.61
7052;BME280;3567;52.444;13.556;2022-12-19T08:53:37;102118.47;;;-1.79;93.71
7052;BME280;3567;52.444;13.556;2022-12-19T08:56:05;102105.91;;;-1.76;94.21
7052;BME280;3567;52.444;13.556;2022-12-19T08:58:34;102103.06;;;-1.73;94.30
7052;BME280;3567;52.444;13.556;2022-12-19T09:01:04;102094.13;;;-1.70;93.83
7052;BME280;3567;52.444;13.556;2022-12-19T09:03:31;102092.09;;;-1.67;94.49
7052;BME280;3567;52.444;13.556;2022-12-19T09:06:03;102084.00;;;-1.64;93.91
7052;BME280;3567;52.444;13.556;2022-12-19T09:08:29;102076.81;;;-1.62;93.66
7052;BME280;3567;52.444;13.556;2022-12-19T09:10:58;102081.94;;;-1.60;94.12
7052;BME280;3567;52.444;13.556;2022-12-19T09:13:26;102074.69;;;-1.56;92.65
7052;BME280;3567;52.444;13.556;2022-12-19T09:18:26;102065.38;;;-1.49;94.14
7052;BME280;3567;52.444;13.556;2022-12-19T09:20:55;102073.88;;;-1.46;93.03
7052;BME280;3567;52.444;13.556;2022-12-19T09:23:21;102061.22;;;-1.41;93.10
7052;BME280;3567;52.444;13.556;2022-12-19T09:25:47;102061.81;;;-1.37;93.03
7052;BME280;3567;52.444;13.556;2022-12-19T09:28:12;102051.78;;;-1.32;91.25
7052;BME280;3567;52.444;13.556;2022-12-19T09:30:38;102046.19;;;-1.27;91.20
7052;BME280;3567;52.444;13.556;2022-12-19T09:33:03;102042.25;;;-1.22;92.48
7052;BME280;3567;52.444;13.556;2022-12-19T09:35:30;102028.59;;;-1.16;92.73
7052;BME280;3567;52.444;13.556;2022-12-19T09:37:55;102027.41;;;-1.12;91.35
7052;BME280;3567;52.444;13.556;2022-12-19T09:40:20;102020.84;;;-1.06;92.07
7052;BME280;3567;52.444;13.556;2022-12-19T09:42:59;102025.47;;;-0.98;90.92
7052;BME280;3567;52.444;13.556;2022-12-19T09:45:43;102014.47;;;-0.92;91.65
7052;BME280;3567;52.444;13.556;2022-12-19T09:48:14;102014.81;;;-0.86;90.01
7052;BME280;3567;52.444;13.556;2022-12-19T09:53:22;102016.47;;;-0.73;89.41
7052;BME280;3567;52.444;13.556;2022-12-19T09:55:52;102002.53;;;-0.64;89.46
7052;BME280;3567;52.444;13.556;2022-12-19T10:00:57;101998.09;;;-0.52;89.65
7052;BME280;3567;52.444;13.556;2022-12-19T10:03:42;102006.47;;;-0.47;88.23
7052;BME280;3567;52.444;13.556;2022-12-19T10:08:44;101984.97;;;-0.32;89.02
7052;BME280;3567;52.444;13.556;2022-12-19T10:19:41;101968.53;;;-0.03;87.32
7052;BME280;3567;52.444;13.556;2022-12-19T10:27:42;101963.78;;;0.12;85.72
7052;BME280;3567;52.444;13.556;2022-12-19T10:30:18;101960.63;;;0.18;86.42
7052;BME280;3567;52.444;13.556;2022-12-19T10:33:48;101951.22;;;0.25;85.72
7052;BME280;3567;52.444;13.556;2022-12-19T10:35:55;101953.72;;;0.26;84.99
7052;BME280;3567;52.444;13.556;2022-12-19T10:38:38;101942.66;;;0.33;84.85
7052;BME280;3567;52.444;13.556;2022-12-19T10:41:21;101934.09;;;0.40;85.93
7052;BME280;3567;52.444;13.556;2022-12-19T10:44:01;101928.28;;;0.46;85.76
7052;BME280;3567;52.444;13.556;2022-12-19T10:46:40;101934.81;;;0.52;85.73
7052;BME280;3567;52.444;13.556;2022-12-19T10:49:14;101925.81;;;0.55;86.09
7052;BME280;3567;52.444;13.556;2022-12-19T10:54:25;101912.94;;;0.61;84.68
7052;BME280;3567;52.444;13.556;2022-12-19T10:56:50;101905.31;;;0.68;84.75
7052;BME280;3567;52.444;13.556;2022-12-19T10:59:18;101902.13;;;0.74;84.34
7052;BME280;3567;52.444;13.556;2022-12-19T11:01:45;101911.28;;;0.79;85.05
7052;BME280;3567;52.444;13.556;2022-12-19T11:07:16;101893.28;;;0.94;84.69
7052;BME280;3567;52.444;13.556;2022-12-19T11:09:39;101882.47;;;0.97;83.45
7052;BME280;3567;52.444;13.556;2022-12-19T11:14:39;101874.53;;;0.97;83.72
7052;BME280;3567;52.444;13.556;2022-12-19T11:17:05;101873.16;;;0.93;83.78
7052;BME280;3567;52.444;13.556;2022-12-19T11:19:46;101879.94;;;0.96;84.51
7052;BME280;3567;52.444;13.556;2022-12-19T11:22:19;101872.75;;;0.98;84.78
7052;BME280;3567;52.444;13.556;2022-12-19T11:24:51;101862.88;;;1.00;84.48
7052;BME280;3567;52.444;13.556;2022-12-19T11:29:59;101854.84;;;1.01;84.61
7052;BME280;3567;52.444;13.556;2022-12-19T11:35:13;101848.69;;;1.01;84.78
7052;BME280;3567;52.444;13.556;2022-12-19T11:37:55;101845.38;;;0.99;86.01
7052;BME280;3567;52.444;13.556;2022-12-19T11:43:26;101828.31;;;0.93;88.07
7052;BME280;3567;52.444;13.556;2022-12-19T11:49:30;101832.91;;;0.91;90.10
7052;BME280;3567;52.444;13.556;2022-12-19T11:54:13;101820.94;;;0.87;91.40
7052;BME280;3567;52.444;13.556;2022-12-19T11:56:40;101822.19;;;0.83;92.18
7052;BME280;3567;52.444;13.556;2022-12-19T12:07:38;101807.31;;;0.63;97.28
7052;BME280;3567;52.444;13.556;2022-12-19T12:10:12;101807.31;;;0.63;98.33
7052;BME280;3567;52.444;13.556;2022-12-19T12:12:58;101797.06;;;0.60;99.55
7052;BME280;3567;52.444;13.556;2022-12-19T12:15:48;101797.06;;;0.60;99.34
7052;BME280;3567;52.444;13.556;2022-12-19T12:26:12;101785.81;;;0.58;100.00
7052;BME280;3567;52.444;13.556;2022-12-19T12:34:23;101768.75;;;0.62;100.00
7052;BME280;3567;52.444;13.556;2022-12-19T12:45:34;101777.19;;;0.56;100.00
7052;BME280;3567;52.444;13.556;2022-12-19T12:48:00;101778.03;;;0.56;100.00
7052;BME280;3567;52.444;13.556;2022-12-19T12:50:26;101774.56;;;0.56;100.00
7052;BME280;3567;52.444;13.556;2022-12-19T12:52:55;101761.53;;;0.54;100.00
7052;BME280;3567;52.444;13.556;2022-12-19T12:55:32;101765.13;;;0.53;100.00
7052;BME280;3567;52.444;13.556;2022-12-19T12:57:59;101764.69;;;0.48;100.00
7052;BME280;3567;52.444;13.556;2022-12-19T13:00:26;101759.72;;;0.45;100.00
7052;BME280;3567;52.444;13.556;2022-12-19T13:03:09;101753.75;;;0.43;100.00
7052;BME280;3567;52.444;13.556;2022-12-19T13:11:14;101749.72;;;0.39;100.00
7052;BME280;3567;52.444;13.556;2022-12-19T13:17:02;101744.72;;;0.36;100.00
7052;BME280;3567;52.444;13.556;2022-12-19T13:20:37;101744.84;;;0.34;100.00
7052;BME280;3567;52.444;13.556;2022-12-19T13:28:15;101732.66;;;0.33;100.00
7052;BME280;3567;52.444;13.556;2022-12-19T13:33:46;101726.41;;;0.34;100.00
7052;BME280;3567;52.444;13.556;2022-12-19T13:36:50;101711.28;;;0.36;100.00
7052;BME280;3567;52.444;13.556;2022-12-19T13:39:32;101717.25;;;0.38;100.00
7052;BME280;3567;52.444;13.556;2022-12-19T13:42:11;101711.69;;;0.41;100.00
7052;BME280;3567;52.444;13.556;2022-12-19T13:45:00;101708.22;;;0.41;100.00
7052;BME280;3567;52.444;13.556;2022-12-19T13:47:32;101707.97;;;0.44;100.00
7052;BME280;3567;52.444;13.556;2022-12-19T13:50:03;101706.84;;;0.46;100.00
7052;BME280;3567;52.444;13.556;2022-12-19T13:52:30;101707.56;;;0.48;100.00
7052;BME280;3567;52.444;13.556;2022-12-19T13:54:57;101705.59;;;0.50;100.00
7052;BME280;3567;52.444;13.556;2022-12-19T13:57:30;101701.00;;;0.52;100.00
7052;BME280;3567;52.444;13.556;2022-12-19T14:00:02;101705.19;;;0.55;100.00
7052;BME280;3567;52.444;13.556;2022-12-19T14:02:32;101701.44;;;0.58;100.00
7052;BME280;3567;52.444;13.556;2022-12-19T14:04:59;101702.13;;;0.60;100.00
7052;BME280;3567;52.444;13.556;2022-12-19T14:07:38;101696.56;;;0.63;100.00
7052;BME280;3567;52.444;13.556;2022-12-19T14:10:07;101690.19;;;0.65;100.00
7052;BME280;3567;52.444;13.556;2022-12-19T14:12:40;101692.69;;;0.67;100.00
7052;BME280;3567;52.444;13.556;2022-12-19T14:15:37;101696.88;;;0.69;100.00
7052;BME280;3567;52.444;13.556;2022-12-19T14:18:18;101689.78;;;0.70;100.00
7052;BME280;3567;52.444;13.556;2022-12-19T14:20:45;101691.28;;;0.72;100.00
7052;BME280;3567;52.444;13.556;2022-12-19T14:23:11;101699.06;;;0.74;100.00
7052;BME280;3567;52.444;13.556;2022-12-19T14:25:45;101691.03;;;0.75;100.00
7052;BME280;3567;52.444;13.556;2022-12-19T14:28:16;101704.88;;;0.77;100.00
7052;BME280;3567;52.444;13.556;2022-12-19T14:30:47;101701.16;;;0.80;100.00
7052;BME280;3567;52.444;13.556;2022-12-19T14:33:21;101694.06;;;0.81;100.00
7052;BME280;3567;52.444;13.556;2022-12-19T14:35:50;101697.38;;;0.83;100.00
7052;BME280;3567;52.444;13.556;2022-12-19T14:38:20;101690.97;;;0.85;100.00
7052;BME280;3567;52.444;13.556;2022-12-19T14:40:47;101709.19;;;0.88;100.00
7052;BME280;3567;52.444;13.556;2022-12-19T14:43:20;101696.00;;;0.88;100.00
7052;BME280;3567;52.444;13.556;2022-12-19T14:48:51;101689.31;;;0.94;100.00
7052;BME280;3567;52.444;13.556;2022-12-19T14:51:33;101693.50;;;0.96;100.00
7052;BME280;3567;52.444;13.556;2022-12-19T14:54:19;101687.91;;;0.99;100.00
7052;BME280;3567;52.444;13.556;2022-12-19T14:59:40;101697.06;;;1.05;100.00
7052;BME280;3567;52.444;13.556;2022-12-19T15:04:35;101684.28;;;1.10;100.00
7052;BME280;3567;52.444;13.556;2022-12-19T15:07:20;101679.56;;;1.14;100.00
7052;BME280;3567;52.444;13.556;2022-12-19T15:09:54;101678.28;;;1.18;100.00
7052;BME280;3567;52.444;13.556;2022-12-19T15:12:28;101673.41;;;1.23;100.00
7052;BME280;3567;52.444;13.556;2022-12-19T15:15:20;101673.81;;;1.28;100.00
7052;BME280;3567;52.444;13.556;2022-12-19T15:17:48;101670.59;;;1.34;100.00